Terminal Aerodrome Forecast
Issued by NWS

Home | Current Version | Previous Version | Text Only | Print | Product List | Glossary On
Versions: 1 2 3 4 5 6 7 8 9 10 11 12 13 14 15 16 17 18
000
FTUS46 KSEW 041740
TAFBFI
TAF
KBFI 041740Z 0418/0518 33003KT P6SM BKN019 OVC025
     FM041900 33006KT P6SM SCT019 BKN060
      TEMPO 0419/0420 P6SM SCT019 BKN025
     FM042100 33007KT P6SM SCT100
     FM050800 18004KT P6SM SCT060 SCT150=

USA.gov is the U.S. government's official web portal to all federal, state and local government web resources and services.